KIRS/IRS METAR and TAF weather

Enter ICAO airport designator
Station Type Date Time Source
KIRS METAR 2019/04/20 22:35 UTC NOAA

KIRS 202235Z AUTO 11007KT 10SM OVC011 09/07 A2975 RMK AO2 T00900070


Station Type Date Time Source
KIRS Decoded METAR 2019/04/20 22:35 UTC NOAA

Sturgis, Kirsch Municipal Airport, MI, United States (KIRS) 41-48-46N 085-26-21W
Apr 20, 2019 - 06:35 PM EDT / 2019.04.20 2235 UTC
Wind: from the ESE (110 degrees) at 8 MPH (7 KT):0
Visibility: 10 mile(s):0
Sky conditions: overcast
Temperature: 48.2 F (9.0 C)
Dew Point: 44.6 F (7.0 C)
Relative Humidity: 87%
Pressure (altimeter): 29.75 in. Hg (1007 hPa)
ob: KIRS 202235Z AUTO 11007KT 10SM OVC011 09/07 A2975 RMK AO2 T00900070
cycle: 22

Station Type Date Time Source
KIRS TAF UTC NOAA

Error!

Example: see airport list